sensor_id;sensor_type;location;lat;lon;timestamp;pressure;altitude;pressure_sealevel;temperature;humidity
6198;BME280;3132;42.622;23.328;2023-02-12T00:01:15;93647.88;;;0.82;41.17
6198;BME280;3132;42.622;23.328;2023-02-12T00:03:40;93641.00;;;1.02;40.21
6198;BME280;3132;42.622;23.328;2023-02-12T00:06:07;93642.78;;;1.15;39.03
6198;BME280;3132;42.622;23.328;2023-02-12T00:08:33;93625.31;;;0.84;39.83
6198;BME280;3132;42.622;23.328;2023-02-12T00:10:59;93647.69;;;0.97;42.07
6198;BME280;3132;42.622;23.328;2023-02-12T00:13:24;93642.56;;;1.03;39.94
6198;BME280;3132;42.622;23.328;2023-02-12T00:15:50;93644.53;;;1.01;40.14
6198;BME280;3132;42.622;23.328;2023-02-12T00:18:15;93637.38;;;0.90;40.58
6198;BME280;3132;42.622;23.328;2023-02-12T00:20:40;93644.97;;;1.11;39.63
6198;BME280;3132;42.622;23.328;2023-02-12T00:23:06;93643.16;;;1.18;40.71
6198;BME280;3132;42.622;23.328;2023-02-12T00:25:32;93655.44;;;1.10;40.01
6198;BME280;3132;42.622;23.328;2023-02-12T00:27:57;93642.38;;;1.11;40.45
6198;BME280;3132;42.622;23.328;2023-02-12T00:30:23;93640.41;;;1.26;39.98
6198;BME280;3132;42.622;23.328;2023-02-12T00:32:48;93635.28;;;1.13;39.94
6198;BME280;3132;42.622;23.328;2023-02-12T00:35:13;93626.94;;;1.05;39.86
6198;BME280;3132;42.622;23.328;2023-02-12T00:37:39;93644.34;;;1.03;41.21
6198;BME280;3132;42.622;23.328;2023-02-12T00:40:05;93621.00;;;0.98;40.44
6198;BME280;3132;42.622;23.328;2023-02-12T00:42:31;93617.44;;;0.92;40.80
6198;BME280;3132;42.622;23.328;2023-02-12T00:44:56;93603.41;;;1.08;39.46
6198;BME280;3132;42.622;23.328;2023-02-12T00:47:21;93594.91;;;0.94;40.37
6198;BME280;3132;42.622;23.328;2023-02-12T00:49:47;93616.88;;;1.10;39.38
6198;BME280;3132;42.622;23.328;2023-02-12T00:52:12;93597.69;;;1.06;39.27
6198;BME280;3132;42.622;23.328;2023-02-12T00:54:37;93581.03;;;0.89;39.21
6198;BME280;3132;42.622;23.328;2023-02-12T00:57:03;93604.81;;;1.04;39.94
6198;BME280;3132;42.622;23.328;2023-02-12T00:59:28;93608.94;;;1.05;39.00
6198;BME280;3132;42.622;23.328;2023-02-12T01:01:54;93580.25;;;1.01;39.83
6198;BME280;3132;42.622;23.328;2023-02-12T01:04:21;93582.22;;;0.86;41.23
6198;BME280;3132;42.622;23.328;2023-02-12T01:06:47;93598.06;;;1.03;40.84
6198;BME280;3132;42.622;23.328;2023-02-12T01:09:12;93591.56;;;1.13;39.84
6198;BME280;3132;42.622;23.328;2023-02-12T01:11:38;93594.72;;;1.02;40.11
6198;BME280;3132;42.622;23.328;2023-02-12T01:14:04;93582.47;;;0.98;41.39
6198;BME280;3132;42.622;23.328;2023-02-12T01:16:30;93576.09;;;0.94;39.83
6198;BME280;3132;42.622;23.328;2023-02-12T01:18:58;93575.72;;;1.03;39.64
6198;BME280;3132;42.622;23.328;2023-02-12T01:21:26;93600.06;;;1.20;39.60
6198;BME280;3132;42.622;23.328;2023-02-12T01:23:52;93592.53;;;0.99;41.70
6198;BME280;3132;42.622;23.328;2023-02-12T01:26:19;93614.47;;;0.95;41.72
6198;BME280;3132;42.622;23.328;2023-02-12T01:28:49;93609.31;;;0.95;41.87
6198;BME280;3132;42.622;23.328;2023-02-12T01:31:18;93623.34;;;0.86;42.65
6198;BME280;3132;42.622;23.328;2023-02-12T01:33:47;93615.66;;;0.93;42.48
6198;BME280;3132;42.622;23.328;2023-02-12T01:36:13;93599.03;;;0.76;42.46
6198;BME280;3132;42.622;23.328;2023-02-12T01:38:38;93603.59;;;0.87;42.40
6198;BME280;3132;42.622;23.328;2023-02-12T01:41:09;93612.09;;;0.94;43.14
6198;BME280;3132;42.622;23.328;2023-02-12T01:43:35;93613.91;;;0.93;43.15
6198;BME280;3132;42.622;23.328;2023-02-12T01:46:01;93595.88;;;0.80;44.85
6198;BME280;3132;42.622;23.328;2023-02-12T01:48:31;93603.78;;;0.85;44.82
6198;BME280;3132;42.622;23.328;2023-02-12T01:50:58;93580.03;;;0.77;44.52
6198;BME280;3132;42.622;23.328;2023-02-12T01:53:29;93557.72;;;0.84;43.16
6198;BME280;3132;42.622;23.328;2023-02-12T01:55:58;93578.88;;;0.86;44.10
6198;BME280;3132;42.622;23.328;2023-02-12T01:58:29;93569.97;;;0.82;45.33
6198;BME280;3132;42.622;23.328;2023-02-12T02:00:55;93541.88;;;0.67;44.61
6198;BME280;3132;42.622;23.328;2023-02-12T02:03:20;93552.19;;;0.80;45.83
6198;BME280;3132;42.622;23.328;2023-02-12T02:05:53;93550.41;;;0.87;45.94
6198;BME280;3132;42.622;23.328;2023-02-12T02:08:21;93540.31;;;0.66;45.97
6198;BME280;3132;42.622;23.328;2023-02-12T02:10:47;93548.22;;;0.65;47.28
6198;BME280;3132;42.622;23.328;2023-02-12T02:13:12;93552.97;;;0.74;47.66
6198;BME280;3132;42.622;23.328;2023-02-12T02:15:59;93524.91;;;0.66;48.14
6198;BME280;3132;42.622;23.328;2023-02-12T02:18:43;93559.13;;;0.93;48.67
6198;BME280;3132;42.622;23.328;2023-02-12T02:21:18;93570.00;;;1.14;49.55
6198;BME280;3132;42.622;23.328;2023-02-12T02:24:13;93571.97;;;1.25;50.66
6198;BME280;3132;42.622;23.328;2023-02-12T02:29:49;93564.47;;;0.98;51.61
6198;BME280;3132;42.622;23.328;2023-02-12T02:32:49;93570.38;;;1.11;50.18
6198;BME280;3132;42.622;23.328;2023-02-12T02:35:25;93549.00;;;0.65;50.62
6198;BME280;3132;42.622;23.328;2023-02-12T02:40:46;93587.59;;;0.91;51.55
6198;BME280;3132;42.622;23.328;2023-02-12T02:43:21;93574.94;;;0.96;51.65
6198;BME280;3132;42.622;23.328;2023-02-12T02:45:51;93580.28;;;0.88;53.05
6198;BME280;3132;42.622;23.328;2023-02-12T02:48:33;93586.00;;;1.03;52.24
6198;BME280;3132;42.622;23.328;2023-02-12T02:51:11;93592.34;;;1.20;52.49
6198;BME280;3132;42.622;23.328;2023-02-12T02:53:48;93590.56;;;1.27;53.38
6198;BME280;3132;42.622;23.328;2023-02-12T02:56:18;93564.06;;;0.94;52.95
6198;BME280;3132;42.622;23.328;2023-02-12T02:59:00;93601.41;;;0.97;53.20
6198;BME280;3132;42.622;23.328;2023-02-12T03:01:31;93536.75;;;0.61;56.10
6198;BME280;3132;42.622;23.328;2023-02-12T03:04:11;93572.38;;;0.90;55.87
6198;BME280;3132;42.622;23.328;2023-02-12T03:06:53;93561.31;;;1.02;56.50
6198;BME280;3132;42.622;23.328;2023-02-12T03:09:30;93588.38;;;1.37;55.49
6198;BME280;3132;42.622;23.328;2023-02-12T03:12:02;93578.69;;;1.39;55.86
6198;BME280;3132;42.622;23.328;2023-02-12T03:14:32;93577.50;;;1.35;56.08
6198;BME280;3132;42.622;23.328;2023-02-12T03:17:12;93589.16;;;1.57;55.86
6198;BME280;3132;42.622;23.328;2023-02-12T03:19:44;93577.88;;;1.52;54.27
6198;BME280;3132;42.622;23.328;2023-02-12T03:22:21;93585.81;;;1.50;54.34
6198;BME280;3132;42.622;23.328;2023-02-12T03:25:00;93585.81;;;1.50;54.93
6198;BME280;3132;42.622;23.328;2023-02-12T03:27:31;93589.75;;;1.46;54.34
6198;BME280;3132;42.622;23.328;2023-02-12T03:29:59;93594.31;;;1.44;53.59
6198;BME280;3132;42.622;23.328;2023-02-12T03:34:59;93596.31;;;1.49;53.50
6198;BME280;3132;42.622;23.328;2023-02-12T03:37:32;93579.50;;;1.40;52.91
6198;BME280;3132;42.622;23.328;2023-02-12T03:45:25;93583.44;;;1.29;52.00
6198;BME280;3132;42.622;23.328;2023-02-12T03:48:05;93590.19;;;1.30;50.93
6198;BME280;3132;42.622;23.328;2023-02-12T03:50:43;93542.31;;;1.23;51.63
6198;BME280;3132;42.622;23.328;2023-02-12T03:53:10;93573.53;;;1.33;50.87
6198;BME280;3132;42.622;23.328;2023-02-12T03:55:40;93581.84;;;1.48;48.56
6198;BME280;3132;42.622;23.328;2023-02-12T03:58:08;93591.75;;;1.44;49.02
6198;BME280;3132;42.622;23.328;2023-02-12T04:00:37;93588.59;;;1.42;48.90
6198;BME280;3132;42.622;23.328;2023-02-12T04:03:04;93589.97;;;1.32;50.45
6198;BME280;3132;42.622;23.328;2023-02-12T04:05:29;93590.34;;;1.42;51.89
6198;BME280;3132;42.622;23.328;2023-02-12T04:07:56;93581.84;;;1.28;49.96
6198;BME280;3132;42.622;23.328;2023-02-12T04:10:37;93577.50;;;1.35;48.36
6198;BME280;3132;42.622;23.328;2023-02-12T04:13:27;93593.53;;;1.50;48.96
6198;BME280;3132;42.622;23.328;2023-02-12T04:16:02;93592.94;;;1.48;49.16
6198;BME280;3132;42.622;23.328;2023-02-12T04:18:41;93566.63;;;1.27;48.61
6198;BME280;3132;42.622;23.328;2023-02-12T04:32:16;93603.00;;;1.04;52.26
6198;BME280;3132;42.622;23.328;2023-02-12T04:37:54;93614.66;;;0.81;55.80
6198;BME280;3132;42.622;23.328;2023-02-12T04:40:21;93596.81;;;0.60;55.02
6198;BME280;3132;42.622;23.328;2023-02-12T04:42:49;93598.00;;;0.57;56.03
6198;BME280;3132;42.622;23.328;2023-02-12T04:45:20;93601.28;;;0.32;56.97
6198;BME280;3132;42.622;23.328;2023-02-12T04:47:46;93606.03;;;0.41;57.13
6198;BME280;3132;42.622;23.328;2023-02-12T04:50:12;93607.50;;;0.63;55.27
6198;BME280;3132;42.622;23.328;2023-02-12T04:52:37;93586.16;;;0.69;53.96
6198;BME280;3132;42.622;23.328;2023-02-12T04:55:03;93613.66;;;0.75;54.81
6198;BME280;3132;42.622;23.328;2023-02-12T04:57:28;93603.59;;;0.87;53.56
6198;BME280;3132;42.622;23.328;2023-02-12T04:59:54;93620.25;;;1.10;52.23
6198;BME280;3132;42.622;23.328;2023-02-12T05:02:19;93631.13;;;1.19;51.93
6198;BME280;3132;42.622;23.328;2023-02-12T05:04:45;93625.38;;;1.17;51.05
6198;BME280;3132;42.622;23.328;2023-02-12T05:07:11;93611.94;;;1.08;51.44
6198;BME280;3132;42.622;23.328;2023-02-12T05:09:36;93612.50;;;1.23;54.47
6198;BME280;3132;42.622;23.328;2023-02-12T05:12:02;93608.75;;;1.32;51.74
6198;BME280;3132;42.622;23.328;2023-02-12T05:14:27;93628.16;;;1.41;51.69
6198;BME280;3132;42.622;23.328;2023-02-12T05:16:53;93631.13;;;1.38;52.79
6198;BME280;3132;42.622;23.328;2023-02-12T05:19:18;93602.00;;;0.92;51.65
6198;BME280;3132;42.622;23.328;2023-02-12T05:21:44;93612.28;;;0.86;51.59
6198;BME280;3132;42.622;23.328;2023-02-12T05:24:09;93615.63;;;0.80;53.15
6198;BME280;3132;42.622;23.328;2023-02-12T05:26:35;93640.97;;;0.96;55.56
6198;BME280;3132;42.622;23.328;2023-02-12T05:29:01;93651.78;;;0.72;56.73
6198;BME280;3132;42.622;23.328;2023-02-12T05:31:27;93639.75;;;0.25;62.62
6198;BME280;3132;42.622;23.328;2023-02-12T05:33:52;93654.44;;;0.38;68.56
6198;BME280;3132;42.622;23.328;2023-02-12T05:36:21;93654.97;;;0.20;68.24
6198;BME280;3132;42.622;23.328;2023-02-12T05:38:50;93661.06;;;0.19;69.31
6198;BME280;3132;42.622;23.328;2023-02-12T05:41:21;93654.28;;;0.05;71.33
6198;BME280;3132;42.622;23.328;2023-02-12T05:43:47;93662.41;;;0.09;70.51
6198;BME280;3132;42.622;23.328;2023-02-12T05:46:13;93657.06;;;0.10;70.01
6198;BME280;3132;42.622;23.328;2023-02-12T05:48:39;93662.19;;;0.10;69.78
6198;BME280;3132;42.622;23.328;2023-02-12T05:51:08;93666.66;;;0.29;68.82
6198;BME280;3132;42.622;23.328;2023-02-12T05:53:35;93671.25;;;0.40;68.09
6198;BME280;3132;42.622;23.328;2023-02-12T05:56:22;93665.38;;;0.53;68.57
6198;BME280;3132;42.622;23.328;2023-02-12T05:58:53;93663.41;;;0.61;68.88
6198;BME280;3132;42.622;23.328;2023-02-12T06:01:22;93669.19;;;0.70;68.41
6198;BME280;3132;42.622;23.328;2023-02-12T06:03:48;93664.44;;;0.67;74.51
6198;BME280;3132;42.622;23.328;2023-02-12T06:06:13;93671.13;;;0.61;70.22
6198;BME280;3132;42.622;23.328;2023-02-12T06:08:39;93678.47;;;0.24;70.39
6198;BME280;3132;42.622;23.328;2023-02-12T06:11:07;93643.44;;;0.03;71.00
6198;BME280;3132;42.622;23.328;2023-02-12T06:13:34;93676.53;;;0.32;70.08
6198;BME280;3132;42.622;23.328;2023-02-12T06:15:59;93687.06;;;0.50;71.32
6198;BME280;3132;42.622;23.328;2023-02-12T06:18:25;93669.84;;;0.31;71.45
6198;BME280;3132;42.622;23.328;2023-02-12T06:20:51;93680.63;;;0.61;72.36
6198;BME280;3132;42.622;23.328;2023-02-12T06:23:19;93682.94;;;0.49;70.36
6198;BME280;3132;42.622;23.328;2023-02-12T06:25:45;93670.56;;;0.25;70.95
6198;BME280;3132;42.622;23.328;2023-02-12T06:28:11;93677.56;;;0.44;70.72
6198;BME280;3132;42.622;23.328;2023-02-12T06:30:36;93673.44;;;0.43;72.31
6198;BME280;3132;42.622;23.328;2023-02-12T06:33:01;93664.22;;;0.21;72.72
6198;BME280;3132;42.622;23.328;2023-02-12T06:35:27;93688.16;;;0.28;74.35
6198;BME280;3132;42.622;23.328;2023-02-12T06:37:52;93683.94;;;0.14;75.63
6198;BME280;3132;42.622;23.328;2023-02-12T06:40:18;93694.63;;;0.18;75.90
6198;BME280;3132;42.622;23.328;2023-02-12T06:42:43;93657.53;;;0.20;77.44
6198;BME280;3132;42.622;23.328;2023-02-12T06:45:09;93694.22;;;0.48;76.05
6198;BME280;3132;42.622;23.328;2023-02-12T06:47:35;93689.38;;;0.32;75.26
6198;BME280;3132;42.622;23.328;2023-02-12T06:50:00;93674.69;;;0.20;74.56
6198;BME280;3132;42.622;23.328;2023-02-12T06:52:26;93662.66;;;0.20;74.63
6198;BME280;3132;42.622;23.328;2023-02-12T06:54:52;93685.47;;;0.43;74.00
6198;BME280;3132;42.622;23.328;2023-02-12T06:57:17;93688.47;;;0.46;74.77
6198;BME280;3132;42.622;23.328;2023-02-12T06:59:43;93664.63;;;0.18;73.39
6198;BME280;3132;42.622;23.328;2023-02-12T07:02:10;93687.97;;;0.30;73.57
6198;BME280;3132;42.622;23.328;2023-02-12T07:04:37;93696.53;;;0.43;72.87
6198;BME280;3132;42.622;23.328;2023-02-12T07:07:03;93688.22;;;0.41;73.45
6198;BME280;3132;42.622;23.328;2023-02-12T07:09:29;93697.03;;;0.26;74.00
6198;BME280;3132;42.622;23.328;2023-02-12T07:11:54;93693.09;;;0.23;74.26
6198;BME280;3132;42.622;23.328;2023-02-12T07:14:20;93698.41;;;0.22;75.20
6198;BME280;3132;42.622;23.328;2023-02-12T07:16:46;93707.69;;;0.23;75.19
6198;BME280;3132;42.622;23.328;2023-02-12T07:19:12;93668.53;;;0.08;75.51
6198;BME280;3132;42.622;23.328;2023-02-12T07:21:37;93690.19;;;0.05;76.70
6198;BME280;3132;42.622;23.328;2023-02-12T07:24:03;93669.19;;;-0.12;76.99
6198;BME280;3132;42.622;23.328;2023-02-12T07:26:28;93683.78;;;0.16;76.90
6198;BME280;3132;42.622;23.328;2023-02-12T07:28:55;93691.25;;;0.11;77.28
6198;BME280;3132;42.622;23.328;2023-02-12T07:31:22;93673.84;;;0.06;77.59
6198;BME280;3132;42.622;23.328;2023-02-12T07:33:48;93681.44;;;-0.07;78.87
6198;BME280;3132;42.622;23.328;2023-02-12T07:36:18;93695.72;;;0.02;78.65
6198;BME280;3132;42.622;23.328;2023-02-12T07:38:44;93691.72;;;-0.07;78.83
6198;BME280;3132;42.622;23.328;2023-02-12T07:41:12;93708.78;;;0.07;78.70
6198;BME280;3132;42.622;23.328;2023-02-12T07:43:41;93720.25;;;0.11;79.17
6198;BME280;3132;42.622;23.328;2023-02-12T07:46:13;93711.44;;;-0.08;79.73
6198;BME280;3132;42.622;23.328;2023-02-12T07:48:39;93715.81;;;-0.08;80.38
6198;BME280;3132;42.622;23.328;2023-02-12T07:51:07;93713.44;;;-0.10;80.86
6198;BME280;3132;42.622;23.328;2023-02-12T07:53:33;93702.72;;;-0.13;80.78
6198;BME280;3132;42.622;23.328;2023-02-12T07:58:32;93711.63;;;-0.09;81.44
6198;BME280;3132;42.622;23.328;2023-02-12T08:00:57;93699.97;;;-0.12;81.00
6198;BME280;3132;42.622;23.328;2023-02-12T08:03:23;93717.81;;;-0.04;81.72
6198;BME280;3132;42.622;23.328;2023-02-12T08:05:48;93697.94;;;-0.23;81.94
6198;BME280;3132;42.622;23.328;2023-02-12T08:08:13;93733.44;;;0.02;82.16
6198;BME280;3132;42.622;23.328;2023-02-12T08:10:39;93723.72;;;-0.03;82.66
6198;BME280;3132;42.622;23.328;2023-02-12T08:13:04;93731.06;;;0.00;82.94
6198;BME280;3132;42.622;23.328;2023-02-12T08:15:29;93735.34;;;-0.07;83.27
6198;BME280;3132;42.622;23.328;2023-02-12T08:17:55;93717.38;;;-0.07;84.28
6198;BME280;3132;42.622;23.328;2023-02-12T08:20:20;93729.22;;;-0.06;83.98
6198;BME280;3132;42.622;23.328;2023-02-12T08:22:46;93730.91;;;0.08;83.03
6198;BME280;3132;42.622;23.328;2023-02-12T08:25:11;93728.81;;;-0.10;84.16
6198;BME280;3132;42.622;23.328;2023-02-12T08:27:36;93739.13;;;-0.03;84.21
6198;BME280;3132;42.622;23.328;2023-02-12T08:30:05;93680.97;;;-0.17;83.67
6198;BME280;3132;42.622;23.328;2023-02-12T08:32:31;93741.72;;;0.03;83.61
6198;BME280;3132;42.622;23.328;2023-02-12T08:34:57;93743.78;;;-0.13;84.95
6198;BME280;3132;42.622;23.328;2023-02-12T08:37:23;93736.72;;;-0.11;85.01
6198;BME280;3132;42.622;23.328;2023-02-12T08:39:48;93747.34;;;-0.14;85.36
6198;BME280;3132;42.622;23.328;2023-02-12T08:42:14;93744.94;;;-0.16;85.62
6198;BME280;3132;42.622;23.328;2023-02-12T08:44:41;93751.03;;;0.05;84.88
6198;BME280;3132;42.622;23.328;2023-02-12T08:47:06;93759.56;;;0.12;84.71
6198;BME280;3132;42.622;23.328;2023-02-12T08:49:34;93741.50;;;-0.02;84.89
6198;BME280;3132;42.622;23.328;2023-02-12T08:51:59;93751.06;;;0.11;84.44
6198;BME280;3132;42.622;23.328;2023-02-12T08:54:28;93751.72;;;-0.08;84.56
6198;BME280;3132;42.622;23.328;2023-02-12T08:56:56;93768.50;;;0.22;84.45
6198;BME280;3132;42.622;23.328;2023-02-12T08:59:22;93756.66;;;0.21;84.34
6198;BME280;3132;42.622;23.328;2023-02-12T09:01:49;93750.16;;;0.19;83.60
6198;BME280;3132;42.622;23.328;2023-02-12T09:04:21;93763.41;;;0.29;84.17
6198;BME280;3132;42.622;23.328;2023-02-12T09:06:48;93788.16;;;0.36;83.06
6198;BME280;3132;42.622;23.328;2023-02-12T09:09:14;93779.41;;;0.24;83.88
6198;BME280;3132;42.622;23.328;2023-02-12T09:11:40;93768.22;;;0.38;83.18
6198;BME280;3132;42.622;23.328;2023-02-12T09:14:08;93787.63;;;0.47;83.86
6198;BME280;3132;42.622;23.328;2023-02-12T09:16:36;93782.81;;;0.31;83.60
6198;BME280;3132;42.622;23.328;2023-02-12T09:19:03;93786.41;;;0.37;83.00
6198;BME280;3132;42.622;23.328;2023-02-12T09:21:28;93797.13;;;0.47;83.11
6198;BME280;3132;42.622;23.328;2023-02-12T09:23:54;93799.38;;;0.63;87.00
6198;BME280;3132;42.622;23.328;2023-02-12T09:26:22;93776.25;;;0.63;85.42
6198;BME280;3132;42.622;23.328;2023-02-12T09:28:50;93804.16;;;0.66;83.27
6198;BME280;3132;42.622;23.328;2023-02-12T09:31:19;93802.75;;;0.63;82.88
6198;BME280;3132;42.622;23.328;2023-02-12T09:33:47;93794.63;;;0.60;85.04
6198;BME280;3132;42.622;23.328;2023-02-12T09:36:15;93801.63;;;0.38;83.72
6198;BME280;3132;42.622;23.328;2023-02-12T09:38:41;93778.59;;;0.51;84.53
6198;BME280;3132;42.622;23.328;2023-02-12T09:43:50;93800.63;;;0.67;82.56
6198;BME280;3132;42.622;23.328;2023-02-12T09:46:31;93792.63;;;0.55;82.99
6198;BME280;3132;42.622;23.328;2023-02-12T09:51:43;93782.59;;;0.60;83.12
6198;BME280;3132;42.622;23.328;2023-02-12T09:54:33;93795.16;;;0.49;83.51
6198;BME280;3132;42.622;23.328;2023-02-12T09:57:05;93799.53;;;0.48;83.22
6198;BME280;3132;42.622;23.328;2023-02-12T09:59:40;93781.72;;;0.47;83.27
6198;BME280;3132;42.622;23.328;2023-02-12T10:02:13;93796.00;;;0.56;83.46
6198;BME280;3132;42.622;23.328;2023-02-12T10:04:41;93796.81;;;0.63;84.74
6198;BME280;3132;42.622;23.328;2023-02-12T10:18:01;93785.00;;;1.09;80.54
6198;BME280;3132;42.622;23.328;2023-02-12T10:26:15;93788.50;;;1.01;82.31
6198;BME280;3132;42.622;23.328;2023-02-12T10:28:43;93806.53;;;1.08;82.36
6198;BME280;3132;42.622;23.328;2023-02-12T10:31:20;93824.75;;;1.13;81.66
6198;BME280;3132;42.622;23.328;2023-02-12T10:33:49;93816.03;;;1.14;81.78
6198;BME280;3132;42.622;23.328;2023-02-12T10:41:59;93814.16;;;0.88;83.45
6198;BME280;3132;42.622;23.328;2023-02-12T10:44:26;93814.19;;;0.95;82.83
6198;BME280;3132;42.622;23.328;2023-02-12T10:46:52;93803.63;;;0.77;83.11
6198;BME280;3132;42.622;23.328;2023-02-12T10:49:19;93809.06;;;1.01;84.01
6198;BME280;3132;42.622;23.328;2023-02-12T10:54:41;93819.06;;;1.24;82.04
6198;BME280;3132;42.622;23.328;2023-02-12T10:57:12;93828.91;;;1.07;82.81
6198;BME280;3132;42.622;23.328;2023-02-12T10:59:40;93818.97;;;0.98;82.93
6198;BME280;3132;42.622;23.328;2023-02-12T11:02:27;93831.09;;;1.10;82.48
6198;BME280;3132;42.622;23.328;2023-02-12T11:04:54;93806.94;;;1.11;82.28
6198;BME280;3132;42.622;23.328;2023-02-12T11:07:21;93824.03;;;1.32;82.02
6198;BME280;3132;42.622;23.328;2023-02-12T11:09:48;93835.94;;;1.39;81.77
6198;BME280;3132;42.622;23.328;2023-02-12T11:12:42;93812.63;;;1.47;81.65
6198;BME280;3132;42.622;23.328;2023-02-12T11:15:14;93812.00;;;1.45;81.16
6198;BME280;3132;42.622;23.328;2023-02-12T11:17:43;93813.44;;;1.67;80.91
6198;BME280;3132;42.622;23.328;2023-02-12T11:22:53;93822.59;;;2.03;79.08
6198;BME280;3132;42.622;23.328;2023-02-12T11:25:20;93824.00;;;2.31;78.53
6198;BME280;3132;42.622;23.328;2023-02-12T11:27:59;93819.63;;;2.12;77.83
6198;BME280;3132;42.622;23.328;2023-02-12T11:30:25;93824.78;;;1.93;79.13
6198;BME280;3132;42.622;23.328;2023-02-12T11:32:50;93818.63;;;1.94;78.69
6198;BME280;3132;42.622;23.328;2023-02-12T11:35:18;93832.94;;;2.29;78.83
6198;BME280;3132;42.622;23.328;2023-02-12T11:37:50;93808.94;;;2.28;77.68
6198;BME280;3132;42.622;23.328;2023-02-12T11:40:26;93812.66;;;2.65;76.92
6198;BME280;3132;42.622;23.328;2023-02-12T11:43:04;93823.97;;;2.70;77.11
6198;BME280;3132;42.622;23.328;2023-02-12T11:45:41;93823.34;;;2.81;75.47
6198;BME280;3132;42.622;23.328;2023-02-12T11:48:28;93826.25;;;3.11;74.60
6198;BME280;3132;42.622;23.328;2023-02-12T11:50:57;93822.16;;;2.71;76.38
6198;BME280;3132;42.622;23.328;2023-02-12T11:53:36;93817.00;;;2.84;76.29
6198;BME280;3132;42.622;23.328;2023-02-12T11:56:14;93805.13;;;2.70;75.85
6198;BME280;3132;42.622;23.328;2023-02-12T11:58:40;93800.00;;;2.50;75.97
6198;BME280;3132;42.622;23.328;2023-02-12T12:01:17;93821.00;;;2.67;77.08
6198;BME280;3132;42.622;23.328;2023-02-12T12:04:12;93824.53;;;2.79;76.12
6198;BME280;3132;42.622;23.328;2023-02-12T12:06:40;93832.81;;;3.07;75.29
6198;BME280;3132;42.622;23.328;2023-02-12T12:09:24;93824.53;;;2.79;75.49
6198;BME280;3132;42.622;23.328;2023-02-12T12:12:10;93831.31;;;2.67;76.82
6198;BME280;3132;42.622;23.328;2023-02-12T12:15:00;93838.84;;;2.23;78.26
6198;BME280;3132;42.622;23.328;2023-02-12T12:17:51;93828.75;;;2.47;77.11
6198;BME280;3132;42.622;23.328;2023-02-12T12:20:56;93831.69;;;2.77;75.92
6198;BME280;3132;42.622;23.328;2023-02-12T12:23:34;93818.97;;;2.82;75.27
6198;BME280;3132;42.622;23.328;2023-02-12T12:26:09;93843.31;;;3.05;75.20
6198;BME280;3132;42.622;23.328;2023-02-12T12:28:44;93842.91;;;3.15;73.50
6198;BME280;3132;42.622;23.328;2023-02-12T12:31:34;93851.38;;;3.28;73.18
6198;BME280;3132;42.622;23.328;2023-02-12T12:34:11;93821.78;;;3.38;72.21
6198;BME280;3132;42.622;23.328;2023-02-12T12:43:00;93840.97;;;2.97;73.28
6198;BME280;3132;42.622;23.328;2023-02-12T12:51:29;93861.25;;;3.51;71.97
6198;BME280;3132;42.622;23.328;2023-02-12T12:57:04;93866.50;;;3.18;71.46
6198;BME280;3132;42.622;23.328;2023-02-12T13:11:01;93874.06;;;3.20;73.02
6198;BME280;3132;42.622;23.328;2023-02-12T13:24:39;93880.50;;;2.78;74.63
6198;BME280;3132;42.622;23.328;2023-02-12T13:26:59;93873.13;;;2.88;73.54
6198;BME280;3132;42.622;23.328;2023-02-12T13:29:36;93879.31;;;2.55;75.13
6198;BME280;3132;42.622;23.328;2023-02-12T13:34:31;93872.56;;;2.67;75.88
6198;BME280;3132;42.622;23.328;2023-02-12T13:37:03;93870.13;;;2.85;75.71
6198;BME280;3132;42.622;23.328;2023-02-12T13:39:34;93874.53;;;2.65;76.60
6198;BME280;3132;42.622;23.328;2023-02-12T13:52:51;93884.06;;;2.58;76.28
6198;BME280;3132;42.622;23.328;2023-02-12T14:01:02;93894.97;;;2.47;77.65
6198;BME280;3132;42.622;23.328;2023-02-12T14:03:29;93901.50;;;2.36;78.04
6198;BME280;3132;42.622;23.328;2023-02-12T14:08:45;93905.50;;;2.58;78.08
6198;BME280;3132;42.622;23.328;2023-02-12T14:11:22;93890.22;;;2.44;77.40
6198;BME280;3132;42.622;23.328;2023-02-12T14:13:56;93903.88;;;2.51;78.46
6198;BME280;3132;42.622;23.328;2023-02-12T14:27:13;93908.22;;;2.31;78.93
6198;BME280;3132;42.622;23.328;2023-02-12T14:37:55;93922.06;;;2.17;79.27
6198;BME280;3132;42.622;23.328;2023-02-12T14:43:03;93952.25;;;2.42;78.64
6198;BME280;3132;42.622;23.328;2023-02-12T14:45:34;93927.22;;;2.04;79.58
6198;BME280;3132;42.622;23.328;2023-02-12T14:48:02;93953.41;;;2.40;78.93
6198;BME280;3132;42.622;23.328;2023-02-12T14:50:40;93957.31;;;2.03;80.41
6198;BME280;3132;42.622;23.328;2023-02-12T14:53:24;93963.66;;;2.01;80.63
6198;BME280;3132;42.622;23.328;2023-02-12T14:55:52;93962.53;;;2.36;79.91
6198;BME280;3132;42.622;23.328;2023-02-12T14:58:20;93962.50;;;2.16;80.99
6198;BME280;3132;42.622;23.328;2023-02-12T15:00:51;93968.44;;;2.17;81.17
6198;BME280;3132;42.622;23.328;2023-02-12T15:03:33;93944.56;;;1.89;80.61
6198;BME280;3132;42.622;23.328;2023-02-12T15:08:42;93987.88;;;2.26;80.18
6198;BME280;3132;42.622;23.328;2023-02-12T15:11:34;93986.13;;;2.33;79.71
6198;BME280;3132;42.622;23.328;2023-02-12T15:14:18;93981.56;;;2.35;79.38
6198;BME280;3132;42.622;23.328;2023-02-12T15:19:43;94005.38;;;2.43;78.64
6198;BME280;3132;42.622;23.328;2023-02-12T15:22:32;94001.81;;;2.51;78.86
6198;BME280;3132;42.622;23.328;2023-02-12T15:25:27;94018.63;;;2.34;78.57
6198;BME280;3132;42.622;23.328;2023-02-12T15:28:18;94025.16;;;2.30;78.67
6198;BME280;3132;42.622;23.328;2023-02-12T15:30:45;94031.91;;;2.31;78.69
6198;BME280;3132;42.622;23.328;2023-02-12T15:33:20;94024.00;;;1.92;80.38
6198;BME280;3132;42.622;23.328;2023-02-12T15:35:49;94016.38;;;2.11;79.42
6198;BME280;3132;42.622;23.328;2023-02-12T15:38:21;94028.31;;;2.25;78.84
6198;BME280;3132;42.622;23.328;2023-02-12T15:40:54;94031.38;;;2.01;80.23
6198;BME280;3132;42.622;23.328;2023-02-12T15:43:20;94038.16;;;2.09;80.21
6198;BME280;3132;42.622;23.328;2023-02-12T15:45:51;94048.09;;;2.12;80.16
6198;BME280;3132;42.622;23.328;2023-02-12T15:48:19;94028.53;;;1.83;81.07
6198;BME280;3132;42.622;23.328;2023-02-12T15:53:32;94052.44;;;2.11;80.04
6198;BME280;3132;42.622;23.328;2023-02-12T15:55:59;94056.13;;;1.96;81.10
6198;BME280;3132;42.622;23.328;2023-02-12T15:58:26;94049.75;;;1.92;80.94
6198;BME280;3132;42.622;23.328;2023-02-12T16:00:54;94057.75;;;2.03;80.65
6198;BME280;3132;42.622;23.328;2023-02-12T16:03:31;94059.31;;;1.98;81.04
6198;BME280;3132;42.622;23.328;2023-02-12T16:06:12;94027.56;;;1.91;80.25
6198;BME280;3132;42.622;23.328;2023-02-12T16:08:41;94041.22;;;1.85;80.23